Etusivu
METAR-TAF:

METAR-TAF

Lentoasemat :

Edremit, Turkki

Leveyspiiri: 39-33-16N, Pituuspiiri: 27-00-49E, korkeus merenpinnasta: 15 m

Tämänhetkinen sää

Tämä raportti tehtiin 1 tunti ja 18 minuuttia sitten, kello 07.50 UTC
Tuuli 23 kn koillisesta
Lämpötila 28°C
Kosteus 48%
Ilmanpaine 1010 hPa
Näkyvyys 10 km tai enemmän
Hajanaisia pilviä 3500 ft:n korkeudessa

METAR: LTFD 130750Z 05023KT 9999 SCT035 28/16 Q1010

Aika: 12:08 (09:08 UTC)

Sääennuste

Tämä raportti tehtiin 1 tunti ja 28 minuuttia sitten, kello 07.40 UTC
Ennuste voimassa 13. päivästä klo 09 UTC - 13. päivään klo 18 UTC
Tuuli 18 kn idästä/koillisesta
Näkyvyys 10 km tai enemmän
Hajanaisia pilviä 3500 ft:n korkeudessa
Ajoittain
13. päivästä klo 09 UTC - 13. päivään klo 12 UTC
Tuuli 22 kn idästä/koillisesta puuskistuen 35 kn:hen

TAF: LTFD 130740Z 1309/1318 06018KT 9999 SCT035 TEMPO 1309/1312 06022G35KT

Säähavainnot ja -ennusteet yli 4000 lentoasemalta (METAR- ja TAF-raportit).

Käytössä olevat sääasemat on merkitty karttaan keltaisilla ja punaisilla pisteillä.

Aseta hiiri pisteen päälle nähdäksesi sääaseman nimen.

Klikkaa sitten nähdäksesi säähavainnot ja -ennusteet.

Kartan vaihtaminen: klikkaa mustalla rastilla varustettuja vihreitä pisteitä, niin voit zoomata sisään; viivalla varustettua vihreää pistettä, niin voit zoomata ulos tai vihreitä nuolia, niin pääset viereisille kartoille.


METAR-TAF: